Time;durP1;ratioP1;P1;durP2;ratioP2;P2;SDS_P1;SDS_P2;PMS_P1;PMS_P2;Temp;Humidity;BMP_temperature;BMP_pressure;BME280_temperature;BME280_humidity;BME280_pressure;Samples;Min_cycle;Max_cycle;Signal;HPM_P1;HPM_P2
2023/08/09 00:01:48;;;;;;;4.18;1.15;;;12.80;99.90;;;;;;4230742;28;20496;-80
2023/08/09 00:03:49;;;;;;;2.95;0.77;;;12.80;99.90;;;;;;4230858;28;20040;-80
2023/08/09 00:05:50;;;;;;;1.83;0.70;;;12.70;99.90;;;;;;4212738;28;20101;-80
2023/08/09 00:07:51;;;;;;;6.95;0.85;;;12.70;99.90;;;;;;4229323;28;20448;-80
2023/08/09 00:09:51;;;;;;;4.40;0.80;;;12.70;99.90;;;;;;4229556;28;20118;-80
2023/08/09 00:11:52;;;;;;;1.92;0.88;;;12.70;99.90;;;;;;4230796;28;20078;-80
2023/08/09 00:13:53;;;;;;;1.17;0.55;;;12.70;99.90;;;;;;4231702;28;20036;-81
2023/08/09 00:15:53;;;;;;;4.25;0.60;;;12.70;99.90;;;;;;4235358;28;20052;-80
2023/08/09 00:17:55;;;;;;;2.80;0.80;;;12.70;99.90;;;;;;4236525;28;20052;-80
2023/08/09 00:19:56;;;;;;;0.98;0.63;;;12.60;99.90;;;;;;4236745;27;20093;-80
2023/08/09 00:21:57;;;;;;;3.88;0.80;;;12.60;99.90;;;;;;4236216;27;20055;-80
2023/08/09 00:23:58;;;;;;;1.85;1.00;;;12.60;99.90;;;;;;4236819;27;20071;-81
2023/08/09 00:26:00;;;;;;;3.38;0.70;;;12.60;99.90;;;;;;4236793;27;20537;-80
2023/08/09 00:28:02;;;;;;;4.60;1.17;;;12.50;99.90;;;;;;4236195;27;20054;-80
2023/08/09 00:30:03;;;;;;;3.30;0.80;;;12.60;99.90;;;;;;4240334;28;20058;-80
2023/08/09 00:32:04;;;;;;;4.22;1.08;;;12.60;99.90;;;;;;4242065;28;20560;-80
2023/08/09 00:34:06;;;;;;;3.90;0.77;;;12.60;99.90;;;;;;4234696;28;20074;-80
2023/08/09 00:36:06;;;;;;;3.83;0.77;;;12.50;99.90;;;;;;4234906;28;20100;-80
2023/08/09 00:38:07;;;;;;;1.90;0.75;;;12.50;99.90;;;;;;4235052;28;20162;-80
2023/08/09 00:40:11;;;;;;;2.92;0.77;;;12.50;99.90;;;;;;4234633;28;20049;-80
2023/08/09 00:42:12;;;;;;;4.53;1.40;;;12.50;99.90;;;;;;4234715;28;20032;-80
2023/08/09 00:44:13;;;;;;;4.07;1.25;;;12.50;99.90;;;;;;4235751;27;20047;-79
2023/08/09 00:46:14;;;;;;;2.55;0.60;;;12.50;99.90;;;;;;4217806;28;20553;-79
2023/08/09 00:48:15;;;;;;;7.35;1.52;;;12.40;99.90;;;;;;4234428;28;20040;-80
2023/08/09 00:50:16;;;;;;;4.30;1.35;;;12.40;99.90;;;;;;4234735;28;20050;-80
2023/08/09 00:52:19;;;;;;;5.47;0.90;;;12.40;99.90;;;;;;4217635;28;20095;-80
2023/08/09 00:54:20;;;;;;;3.38;0.68;;;12.40;99.90;;;;;;4234921;28;20058;-80
2023/08/09 00:56:21;;;;;;;6.70;1.25;;;12.40;99.90;;;;;;4235936;27;20479;-80
2023/08/09 00:58:22;;;;;;;4.78;0.75;;;12.40;99.90;;;;;;4234716;28;20043;-80
2023/08/09 01:00:23;;;;;;;1.50;0.57;;;12.40;99.90;;;;;;4234832;28;20503;-80
2023/08/09 01:02:24;;;;;;;3.50;1.15;;;12.40;99.90;;;;;;4235108;28;20119;-80
2023/08/09 01:04:26;;;;;;;4.88;0.85;;;12.40;99.90;;;;;;4234417;28;20040;-80
2023/08/09 01:07:09;;;;;;;3.45;0.75;;;12.30;99.90;;;;;;4234428;28;20109;-80
2023/08/09 01:09:21;;;;;;;3.15;0.70;;;12.30;99.90;;;;;;4185342;28;20063;-79
2023/08/09 01:11:44;;;;;;;3.50;0.70;;;12.30;99.90;;;;;;4234409;28;20149;-81
2023/08/09 01:13:49;;;;;;;3.45;0.70;;;12.30;99.90;;;;;;4236052;27;20082;-81
2023/08/09 01:15:51;;;;;;;1.67;0.50;;;12.30;99.90;;;;;;4235890;27;20055;-81
2023/08/09 01:17:54;;;;;;;4.93;0.80;;;12.30;99.90;;;;;;4234321;28;20047;-80
2023/08/09 01:19:56;;;;;;;2.90;0.65;;;12.30;99.90;;;;;;4234788;28;20050;-81
2023/08/09 01:22:04;;;;;;;2.70;0.68;;;12.30;99.90;;;;;;4235304;27;20106;-81
2023/08/09 01:24:06;;;;;;;4.45;0.68;;;12.70;99.90;;;;;;4236053;27;20044;-80
2023/08/09 01:26:07;;;;;;;3.50;0.95;;;12.20;99.90;;;;;;4233160;27;20055;-80
2023/08/09 01:28:07;;;;;;;2.28;0.60;;;12.20;99.90;;;;;;4233109;28;20040;-81
2023/08/09 01:30:09;;;;;;;3.22;0.63;;;12.20;99.90;;;;;;4233397;28;20051;-81
2023/08/09 01:32:11;;;;;;;5.00;0.70;;;12.20;99.90;;;;;;4232181;28;20075;-81
2023/08/09 01:34:11;;;;;;;2.97;0.82;;;12.20;99.90;;;;;;4233017;28;20039;-81
2023/08/09 01:36:21;;;;;;;5.30;0.80;;;12.20;99.90;;;;;;4214554;28;20089;-80
2023/08/09 01:38:26;;;;;;;4.43;0.60;;;12.20;99.90;;;;;;4232785;28;20048;-80
2023/08/09 01:40:27;;;;;;;3.75;0.63;;;12.20;99.90;;;;;;4233373;28;20036;-81
2023/08/09 01:42:29;;;;;;;2.45;0.70;;;12.20;99.90;;;;;;4232847;28;20132;-81
2023/08/09 01:44:30;;;;;;;12.95;1.55;;;12.20;99.90;;;;;;4232621;28;20051;-81
2023/08/09 01:46:31;;;;;;;2.22;0.77;;;12.20;99.90;;;;;;4232720;28;20051;-80
2023/08/09 01:48:32;;;;;;;5.82;0.70;;;12.20;99.90;;;;;;4232624;28;20126;-80
2023/08/09 01:50:33;;;;;;;2.83;1.02;;;12.20;99.90;;;;;;4232837;28;20110;-81
2023/08/09 01:52:34;;;;;;;2.58;0.75;;;12.20;99.90;;;;;;4232168;28;20040;-81
2023/08/09 01:54:34;;;;;;;5.15;1.73;;;12.20;99.90;;;;;;4232728;28;20122;-80
2023/08/09 01:56:35;;;;;;;7.20;1.30;;;12.20;99.90;;;;;;4231304;28;20047;-81
2023/08/09 01:58:37;;;;;;;3.30;0.68;;;12.20;99.90;;;;;;4232620;28;20054;-81
2023/08/09 02:00:38;;;;;;;5.80;0.60;;;12.20;99.90;;;;;;4231382;28;20435;-81
2023/08/09 02:02:38;;;;;;;3.08;1.13;;;12.20;99.90;;;;;;4232164;28;20056;-80
2023/08/09 02:04:39;;;;;;;4.25;0.68;;;12.20;99.90;;;;;;4232041;28;20128;-81
2023/08/09 02:06:40;;;;;;;3.50;0.60;;;12.10;99.90;;;;;;4232310;28;20064;-81
2023/08/09 02:08:42;;;;;;;3.22;0.47;;;12.10;99.90;;;;;;4232462;28;20471;-80
2023/08/09 02:10:43;;;;;;;2.80;1.42;;;12.10;99.90;;;;;;4231484;28;20052;-80
2023/08/09 02:12:47;;;;;;;2.95;0.65;;;12.10;99.90;;;;;;4232480;28;20094;-81
2023/08/09 02:14:48;;;;;;;5.72;0.85;;;12.10;99.90;;;;;;4232301;28;20084;-81
2023/08/09 02:16:49;;;;;;;3.05;0.80;;;12.10;99.90;;;;;;4232330;28;20052;-81
2023/08/09 02:18:49;;;;;;;2.15;0.80;;;12.10;99.90;;;;;;4232369;28;20531;-81
2023/08/09 02:20:50;;;;;;;3.22;0.68;;;12.10;99.90;;;;;;4232097;28;20230;-80
2023/08/09 02:22:51;;;;;;;3.10;0.57;;;12.10;99.90;;;;;;4231655;28;20080;-80
2023/08/09 02:24:52;;;;;;;3.78;0.65;;;12.10;99.90;;;;;;4232245;28;20502;-80
2023/08/09 02:26:53;;;;;;;2.20;0.50;;;12.10;99.90;;;;;;4231049;28;20046;-81
2023/08/09 02:28:54;;;;;;;4.13;0.77;;;12.10;99.90;;;;;;4232056;28;20036;-81
2023/08/09 02:30:54;;;;;;;3.75;0.80;;;12.00;99.90;;;;;;4231716;28;20118;-80
2023/08/09 02:32:55;;;;;;;4.15;0.77;;;12.00;99.90;;;;;;4231888;28;20046;-81
2023/08/09 02:34:56;;;;;;;1.77;0.73;;;12.00;99.90;;;;;;4231786;28;20039;-80
2023/08/09 02:36:57;;;;;;;3.22;0.70;;;12.00;99.90;;;;;;4229989;28;20431;-81
2023/08/09 02:38:58;;;;;;;4.47;0.63;;;12.00;99.90;;;;;;4230579;28;20043;-80
2023/08/09 02:41:00;;;;;;;4.45;0.80;;;12.00;99.90;;;;;;4231984;28;20043;-80
2023/08/09 02:43:00;;;;;;;4.93;0.80;;;12.00;99.90;;;;;;4230289;28;20500;-81
2023/08/09 02:45:01;;;;;;;4.32;0.88;;;12.00;99.90;;;;;;4229977;28;20055;-81
2023/08/09 02:47:03;;;;;;;1.02;0.63;;;11.90;99.90;;;;;;4231284;28;20044;-80
2023/08/09 02:49:03;;;;;;;3.45;1.33;;;12.00;99.90;;;;;;4232237;28;20142;-80
2023/08/09 02:51:04;;;;;;;4.18;0.80;;;12.00;99.90;;;;;;4232104;27;20058;-80
2023/08/09 02:53:05;;;;;;;4.78;0.60;;;12.00;99.90;;;;;;4230527;28;20039;-80
2023/08/09 02:55:06;;;;;;;1.90;0.65;;;12.00;99.90;;;;;;4231856;28;20118;-80
2023/08/09 02:57:07;;;;;;;2.97;0.75;;;12.00;99.90;;;;;;4230881;28;20051;-80
2023/08/09 02:59:08;;;;;;;1.95;1.02;;;11.90;99.90;;;;;;4232001;28;20043;-80
2023/08/09 03:01:08;;;;;;;3.83;1.00;;;11.90;99.90;;;;;;4231535;28;20043;-80
2023/08/09 03:03:09;;;;;;;2.58;0.50;;;11.90;99.90;;;;;;4230021;28;20412;-81
2023/08/09 03:05:10;;;;;;;3.95;0.60;;;11.90;99.90;;;;;;4231791;28;20526;-80
2023/08/09 03:07:10;;;;;;;2.63;0.85;;;11.90;99.90;;;;;;4231260;27;20048;-80
2023/08/09 03:09:11;;;;;;;2.58;0.80;;;11.90;99.90;;;;;;4231377;28;20051;-80
2023/08/09 03:11:12;;;;;;;3.75;1.42;;;11.90;99.90;;;;;;4231482;28;20059;-80
2023/08/09 03:13:13;;;;;;;4.32;0.68;;;11.80;99.90;;;;;;4231333;28;20040;-81
2023/08/09 03:15:15;;;;;;;3.83;1.00;;;11.90;99.90;;;;;;4229982;28;20115;-80
2023/08/09 03:17:16;;;;;;;2.25;0.80;;;11.80;99.90;;;;;;4231338;28;20604;-80
2023/08/09 03:19:16;;;;;;;3.45;0.70;;;11.80;99.90;;;;;;4213905;28;20114;-80
2023/08/09 03:21:17;;;;;;;2.65;0.70;;;11.90;99.90;;;;;;4231289;28;20044;-80
2023/08/09 03:23:18;;;;;;;6.82;0.82;;;11.80;99.90;;;;;;4231115;28;20043;-80
2023/08/09 03:25:19;;;;;;;15.23;1.75;;;11.80;99.90;;;;;;4231350;28;20035;-80
2023/08/09 03:27:20;;;;;;;6.35;1.13;;;11.80;99.90;;;;;;4230995;28;20050;-81
2023/08/09 03:29:20;;;;;;;3.08;0.90;;;11.80;99.90;;;;;;4230836;28;20046;-80
2023/08/09 03:31:21;;;;;;;6.82;0.90;;;11.80;99.90;;;;;;4230167;28;20044;-80
2023/08/09 03:33:22;;;;;;;6.90;1.52;;;11.80;99.90;;;;;;4230899;28;20051;-80
2023/08/09 03:35:22;;;;;;;5.15;0.88;;;11.80;99.90;;;;;;4231220;28;20060;-80
2023/08/09 03:37:23;;;;;;;4.18;0.75;;;11.80;99.90;;;;;;4229875;28;20084;-81
2023/08/09 03:39:25;;;;;;;5.38;1.25;;;11.80;99.90;;;;;;4231136;28;20095;-80
2023/08/09 03:41:26;;;;;;;1.85;0.63;;;11.90;99.90;;;;;;4231262;28;20576;-80
2023/08/09 03:43:27;;;;;;;6.78;0.90;;;11.80;99.90;;;;;;4231084;28;20047;-80
2023/08/09 03:45:27;;;;;;;5.95;0.95;;;11.90;99.90;;;;;;4231098;28;20040;-80
2023/08/09 03:47:28;;;;;;;6.13;1.50;;;11.90;99.90;;;;;;4230729;28;20039;-80
2023/08/09 03:49:29;;;;;;;2.33;0.70;;;11.90;99.90;;;;;;4228944;28;20043;-80
2023/08/09 03:51:29;;;;;;;2.17;0.57;;;11.90;99.90;;;;;;4231150;28;20048;-80
2023/08/09 03:53:30;;;;;;;1.58;0.63;;;11.90;99.90;;;;;;4230840;28;20128;-80
2023/08/09 03:55:31;;;;;;;3.78;0.60;;;11.90;99.90;;;;;;4230703;28;20047;-81
2023/08/09 03:57:31;;;;;;;3.42;0.95;;;11.90;99.90;;;;;;4230621;28;20039;-80
2023/08/09 03:59:32;;;;;;;3.67;0.93;;;11.80;99.90;;;;;;4230717;28;20044;-80
2023/08/09 04:01:33;;;;;;;1.55;0.60;;;11.90;99.90;;;;;;4231076;28;20506;-80
2023/08/09 04:03:34;;;;;;;3.70;0.93;;;11.90;99.90;;;;;;4230496;28;20951;-81
2023/08/09 04:05:35;;;;;;;3.20;1.02;;;12.50;99.90;;;;;;4229863;28;20047;-80
2023/08/09 04:07:36;;;;;;;2.10;0.55;;;11.80;99.90;;;;;;4230411;28;20047;-80
2023/08/09 04:09:37;;;;;;;5.55;1.23;;;11.80;99.90;;;;;;4230500;28;20043;-80
2023/08/09 04:11:37;;;;;;;1.63;0.90;;;11.90;99.90;;;;;;4230467;28;20048;-80
2023/08/09 04:13:38;;;;;;;6.43;1.52;;;11.90;99.90;;;;;;4230121;28;20412;-80
2023/08/09 04:15:39;;;;;;;3.45;0.80;;;11.90;99.90;;;;;;4230182;28;20536;-80
2023/08/09 04:17:40;;;;;;;2.78;0.90;;;11.90;99.90;;;;;;4230034;28;20055;-80
2023/08/09 04:19:41;;;;;;;4.72;0.60;;;11.90;99.90;;;;;;4229199;28;20044;-80
2023/08/09 04:21:42;;;;;;;2.20;0.60;;;11.90;99.90;;;;;;4229332;28;20089;-81
2023/08/09 04:23:43;;;;;;;3.20;0.57;;;11.90;99.90;;;;;;4230283;28;20505;-80
2023/08/09 04:25:44;;;;;;;1.70;0.70;;;11.90;99.90;;;;;;4231122;28;20470;-80
2023/08/09 04:27:45;;;;;;;1.70;0.80;;;11.90;99.90;;;;;;4233700;28;20086;-80
2023/08/09 04:29:46;;;;;;;3.35;0.70;;;11.90;99.90;;;;;;4240138;28;20043;-80
2023/08/09 04:31:48;;;;;;;3.92;0.90;;;11.90;99.90;;;;;;4240160;28;20146;-79
2023/08/09 04:33:51;;;;;;;4.50;0.80;;;11.90;99.90;;;;;;4240810;28;20043;-80
2023/08/09 04:35:53;;;;;;;3.75;1.35;;;11.90;99.90;;;;;;4239391;28;20114;-80
2023/08/09 04:37:54;;;;;;;1.05;0.60;;;11.90;99.90;;;;;;4238684;28;20177;-79
2023/08/09 04:39:55;;;;;;;2.30;0.60;;;11.90;99.90;;;;;;4222752;28;20060;-80
2023/08/09 04:41:56;;;;;;;5.05;0.80;;;11.90;99.90;;;;;;4237835;28;20512;-81
2023/08/09 04:43:57;;;;;;;2.15;0.73;;;12.00;99.90;;;;;;4228903;28;20059;-80
2023/08/09 04:45:58;;;;;;;3.95;0.70;;;12.00;99.90;;;;;;4228939;28;20529;-80
2023/08/09 04:48:01;;;;;;;1.77;0.80;;;12.00;99.90;;;;;;4229890;28;20165;-80
2023/08/09 04:50:04;;;;;;;8.23;0.98;;;12.00;99.90;;;;;;4228969;28;20051;-80
2023/08/09 04:52:05;;;;;;;4.35;0.93;;;12.10;99.90;;;;;;4230102;28;20050;-80
2023/08/09 04:54:05;;;;;;;3.22;0.70;;;12.10;99.90;;;;;;4229692;28;20507;-80
2023/08/09 04:56:06;;;;;;;4.57;0.65;;;12.10;99.90;;;;;;4229059;28;20533;-80
2023/08/09 04:58:08;;;;;;;10.23;1.00;;;12.10;99.90;;;;;;4228617;28;20097;-81
2023/08/09 05:00:12;;;;;;;6.53;0.80;;;12.10;99.90;;;;;;4230307;28;20046;-80
2023/08/09 05:02:12;;;;;;;2.55;0.90;;;12.10;99.90;;;;;;4231517;28;20110;-80
2023/08/09 05:04:13;;;;;;;3.08;0.77;;;12.20;99.90;;;;;;4232365;28;20054;-80
2023/08/09 05:06:14;;;;;;;1.15;0.57;;;12.20;99.90;;;;;;4232407;28;20050;-80
2023/08/09 05:08:14;;;;;;;3.70;0.70;;;12.20;99.90;;;;;;4233775;28;20039;-80
2023/08/09 05:10:15;;;;;;;2.72;0.65;;;12.30;99.90;;;;;;4233352;28;20043;-80
2023/08/09 05:12:16;;;;;;;3.45;0.57;;;12.30;99.90;;;;;;4232665;28;20120;-80
2023/08/09 05:14:16;;;;;;;3.85;1.13;;;12.40;99.90;;;;;;4232256;28;20070;-81
2023/08/09 05:16:17;;;;;;;2.97;0.90;;;12.50;99.90;;;;;;4232143;28;20514;-80
2023/08/09 05:18:19;;;;;;;0.70;0.60;;;12.50;99.90;;;;;;4233265;28;20089;-80
2023/08/09 05:20:19;;;;;;;4.15;1.40;;;12.50;99.90;;;;;;4231871;28;20145;-80
2023/08/09 05:22:21;;;;;;;3.85;1.02;;;12.60;99.90;;;;;;4231439;28;20177;-80
2023/08/09 05:24:21;;;;;;;4.30;0.65;;;12.70;99.90;;;;;;4232800;28;20480;-81
2023/08/09 05:26:22;;;;;;;5.43;0.90;;;12.70;99.90;;;;;;4239701;28;20103;-79
2023/08/09 05:28:23;;;;;;;2.20;0.60;;;12.80;99.90;;;;;;4235674;28;20059;-80
2023/08/09 05:30:23;;;;;;;0.90;0.73;;;12.80;99.90;;;;;;4244878;28;20143;-80
2023/08/09 05:32:24;;;;;;;3.13;0.70;;;12.90;99.90;;;;;;4231767;28;20056;-81
2023/08/09 05:34:25;;;;;;;1.08;0.65;;;13.00;99.90;;;;;;4231955;28;20043;-80
2023/08/09 05:36:26;;;;;;;1.83;0.63;;;13.20;99.90;;;;;;4231722;28;20044;-81
2023/08/09 05:38:26;;;;;;;3.13;0.80;;;13.10;99.90;;;;;;4231659;28;20035;-80
2023/08/09 05:40:27;;;;;;;4.97;0.55;;;13.10;99.90;;;;;;4231881;28;20040;-80
2023/08/09 05:42:28;;;;;;;4.75;0.80;;;13.20;99.90;;;;;;4231605;28;20134;-80
2023/08/09 05:44:28;;;;;;;0.73;0.73;;;13.30;99.90;;;;;;4215020;28;20043;-81
2023/08/09 05:46:29;;;;;;;4.45;1.00;;;13.30;99.90;;;;;;4231097;28;20107;-80
2023/08/09 05:48:30;;;;;;;0.95;0.52;;;13.40;99.90;;;;;;4230568;28;20046;-80
2023/08/09 05:50:30;;;;;;;3.95;1.20;;;13.40;99.90;;;;;;4232831;28;20048;-81
2023/08/09 05:52:31;;;;;;;2.95;0.60;;;13.50;99.90;;;;;;4232260;28;20048;-80
2023/08/09 05:54:33;;;;;;;5.00;0.88;;;13.50;99.90;;;;;;4214799;28;20059;-80
2023/08/09 05:56:34;;;;;;;3.67;0.95;;;13.60;99.90;;;;;;4232250;28;20093;-81
2023/08/09 05:58:34;;;;;;;2.15;0.63;;;13.70;99.90;;;;;;4231153;28;20471;-80
2023/08/09 06:00:35;;;;;;;0.95;0.50;;;13.70;99.90;;;;;;4232640;27;20046;-80
2023/08/09 06:02:36;;;;;;;3.17;1.13;;;13.80;99.90;;;;;;4232350;28;20089;-80
2023/08/09 06:04:37;;;;;;;5.20;0.60;;;13.80;99.90;;;;;;4231885;28;20126;-80
2023/08/09 06:06:38;;;;;;;1.40;0.75;;;13.90;99.90;;;;;;4232499;28;20119;-81
2023/08/09 06:08:39;;;;;;;2.72;0.75;;;14.00;99.90;;;;;;4231880;28;20039;-80
2023/08/09 06:10:40;;;;;;;3.75;1.02;;;14.00;99.90;;;;;;4231341;28;20105;-80
2023/08/09 06:12:41;;;;;;;3.13;0.68;;;14.10;99.90;;;;;;4229809;28;20048;-80
2023/08/09 06:14:41;;;;;;;0.88;0.50;;;14.20;99.90;;;;;;4230905;28;20134;-80
2023/08/09 06:16:45;;;;;;;1.50;0.60;;;14.20;99.90;;;;;;4230856;28;20076;-81
2023/08/09 06:18:46;;;;;;;1.98;0.50;;;14.30;99.90;;;;;;4231902;28;20503;-80
2023/08/09 06:20:48;;;;;;;3.22;0.70;;;14.30;99.90;;;;;;4232285;28;20043;-81
2023/08/09 06:22:49;;;;;;;5.13;1.35;;;14.40;99.90;;;;;;4230749;28;20044;-80
2023/08/09 06:24:49;;;;;;;6.57;1.20;;;14.50;99.90;;;;;;4214236;28;20048;-81
2023/08/09 06:26:50;;;;;;;3.40;0.90;;;14.50;99.90;;;;;;4230699;28;20093;-81
2023/08/09 06:28:51;;;;;;;8.90;0.90;;;14.60;99.90;;;;;;4214127;28;20040;-80
2023/08/09 06:30:51;;;;;;;2.67;1.00;;;14.70;99.90;;;;;;4231471;28;20155;-80
2023/08/09 06:32:53;;;;;;;2.75;0.70;;;14.80;99.90;;;;;;4215162;28;20094;-81
2023/08/09 06:34:54;;;;;;;5.72;0.65;;;14.80;99.90;;;;;;4231062;28;20555;-80
2023/08/09 06:36:54;;;;;;;4.18;0.80;;;14.90;99.90;;;;;;4214215;28;20048;-80
2023/08/09 06:38:55;;;;;;;4.25;0.80;;;15.00;99.90;;;;;;4231879;28;20050;-80
2023/08/09 06:40:56;;;;;;;2.33;0.60;;;15.00;99.90;;;;;;4214189;28;20044;-80
2023/08/09 06:42:57;;;;;;;6.45;0.88;;;15.10;99.90;;;;;;4213336;28;20076;-80
2023/08/09 06:44:57;;;;;;;3.10;0.80;;;15.10;99.90;;;;;;4231849;28;20086;-80
2023/08/09 06:46:59;;;;;;;2.67;0.60;;;15.30;99.90;;;;;;4232061;28;20115;-80
2023/08/09 06:49:00;;;;;;;4.32;0.93;;;15.30;99.90;;;;;;4230977;28;20537;-81
2023/08/09 06:51:01;;;;;;;4.60;0.70;;;15.40;99.90;;;;;;4232503;28;20075;-80
2023/08/09 06:53:02;;;;;;;2.92;0.77;;;15.50;99.90;;;;;;4245687;28;20043;-80
2023/08/09 06:55:04;;;;;;;3.17;1.05;;;15.60;99.90;;;;;;4249488;28;20051;-80
2023/08/09 06:57:04;;;;;;;3.72;0.80;;;15.70;99.90;;;;;;4237391;28;20051;-80
2023/08/09 06:59:05;;;;;;;1.17;0.80;;;15.70;99.90;;;;;;4231285;28;20396;-80
2023/08/09 07:01:09;;;;;;;3.47;1.00;;;15.80;99.90;;;;;;4231225;28;20123;-80
2023/08/09 07:03:09;;;;;;;3.88;0.75;;;15.90;99.90;;;;;;4229947;28;20050;-80
2023/08/09 07:05:15;;;;;;;4.55;1.20;;;16.00;99.90;;;;;;4230721;28;20055;-80
2023/08/09 07:07:15;;;;;;;3.95;0.68;;;16.10;99.90;;;;;;4231142;28;20040;-80
2023/08/09 07:09:18;;;;;;;2.80;0.75;;;16.20;99.90;;;;;;4234244;28;20100;-80
2023/08/09 07:11:19;;;;;;;1.95;0.85;;;16.20;99.90;;;;;;4235495;28;20047;-79
2023/08/09 07:13:20;;;;;;;2.55;0.50;;;16.20;99.90;;;;;;4233912;28;20046;-80
2023/08/09 07:15:21;;;;;;;6.93;1.05;;;16.30;99.90;;;;;;4229989;28;20048;-80
2023/08/09 07:17:21;;;;;;;2.30;0.73;;;16.50;99.90;;;;;;4230938;28;20050;-80
2023/08/09 07:19:22;;;;;;;5.22;0.90;;;16.60;99.90;;;;;;4212783;28;20109;-80
2023/08/09 07:21:23;;;;;;;2.33;0.52;;;16.70;99.90;;;;;;4230229;28;20071;-80
2023/08/09 07:23:24;;;;;;;3.25;0.70;;;16.70;99.90;;;;;;4230714;28;20214;-80
2023/08/09 07:25:24;;;;;;;5.65;1.17;;;16.90;99.90;;;;;;4229766;28;20055;-80
2023/08/09 07:27:25;;;;;;;3.33;0.65;;;16.90;99.90;;;;;;4230587;28;20497;-80
2023/08/09 07:29:26;;;;;;;0.77;0.60;;;17.00;99.90;;;;;;4231235;28;20453;-80
2023/08/09 07:31:26;;;;;;;1.45;0.60;;;17.20;99.90;;;;;;4229292;28;20050;-80
2023/08/09 07:33:27;;;;;;;3.08;0.60;;;17.30;99.90;;;;;;4229856;28;20086;-80
2023/08/09 07:35:28;;;;;;;5.22;0.60;;;17.50;99.90;;;;;;4231333;28;20040;-80
2023/08/09 07:37:30;;;;;;;1.80;0.60;;;17.60;99.90;;;;;;4212660;28;20043;-80
2023/08/09 07:39:31;;;;;;;2.40;1.23;;;17.70;99.90;;;;;;4229846;28;20057;-80
2023/08/09 07:41:32;;;;;;;2.47;0.60;;;17.90;99.90;;;;;;4212311;28;20051;-80
2023/08/09 07:43:33;;;;;;;3.95;1.45;;;17.90;99.90;;;;;;4230367;28;20603;-80
2023/08/09 07:45:34;;;;;;;4.10;0.63;;;18.00;99.90;;;;;;4230900;28;20039;-80
2023/08/09 07:47:35;;;;;;;1.17;0.52;;;18.10;99.90;;;;;;4212610;28;20051;-80
2023/08/09 07:49:36;;;;;;;3.13;0.50;;;18.20;99.90;;;;;;4229567;28;20079;-80
2023/08/09 07:51:36;;;;;;;3.13;0.82;;;18.30;99.90;;;;;;4230688;28;20040;-80
2023/08/09 07:53:38;;;;;;;4.68;1.10;;;18.50;99.90;;;;;;4229641;28;20507;-80
2023/08/09 07:55:39;;;;;;;0.63;0.50;;;18.60;99.90;;;;;;4212803;28;20129;-80
2023/08/09 07:57:40;;;;;;;1.15;0.35;;;18.60;99.90;;;;;;4212684;28;20462;-80
2023/08/09 07:59:40;;;;;;;3.03;0.70;;;18.70;99.90;;;;;;4229081;28;20044;-80
2023/08/09 08:01:41;;;;;;;2.83;0.60;;;18.80;99.90;;;;;;4230787;28;20526;-80
2023/08/09 08:03:42;;;;;;;2.03;0.50;;;18.80;99.90;;;;;;4229345;28;20040;-80
2023/08/09 08:05:43;;;;;;;4.68;1.20;;;19.00;99.90;;;;;;4212750;28;20048;-80
2023/08/09 08:07:44;;;;;;;3.40;0.50;;;19.10;99.90;;;;;;4229112;28;20659;-80
2023/08/09 08:09:45;;;;;;;6.50;0.70;;;19.10;99.90;;;;;;4230508;28;20086;-80
2023/08/09 08:11:45;;;;;;;2.15;1.00;;;19.30;99.90;;;;;;4212865;28;20499;-80
2023/08/09 08:13:46;;;;;;;6.30;1.35;;;19.50;99.90;;;;;;4229120;28;20555;-80
2023/08/09 08:15:47;;;;;;;9.07;0.80;;;19.70;99.90;;;;;;4229221;28;20058;-80
2023/08/09 08:17:51;;;;;;;2.65;0.90;;;19.80;99.90;;;;;;4230350;28;20059;-80
2023/08/09 08:19:52;;;;;;;1.73;0.80;;;19.90;99.90;;;;;;4212030;28;20082;-80
2023/08/09 08:21:53;;;;;;;2.90;0.65;;;20.00;99.90;;;;;;4230864;28;20036;-80
2023/08/09 08:23:53;;;;;;;5.63;0.90;;;20.10;99.90;;;;;;4230040;28;20036;-80
2023/08/09 08:25:55;;;;;;;2.38;0.63;;;20.10;99.90;;;;;;4229024;28;20162;-81
2023/08/09 08:27:56;;;;;;;1.38;0.57;;;20.20;99.90;;;;;;4230226;28;20492;-80
2023/08/09 08:29:56;;;;;;;3.65;0.80;;;20.30;99.90;;;;;;4230717;28;20082;-80
2023/08/09 08:31:57;;;;;;;2.63;0.75;;;;;;;;;;4229752;28;20048;-81
2023/08/09 08:33:59;;;;;;;5.20;1.27;;;;;;;;;;4228904;28;20549;-80
2023/08/09 08:36:00;;;;;;;1.05;0.70;;;;;;;;;;4214266;28;20044;-80
2023/08/09 08:38:02;;;;;;;1.33;0.40;;;;;;;;;;4215333;28;20511;-80
2023/08/09 08:40:08;;;;;;;3.05;0.65;;;;;;;;;;4233771;28;20039;-80
2023/08/09 08:42:09;;;;;;;2.53;0.73;;;;;;;;;;4232871;28;20079;-81
2023/08/09 08:44:11;;;;;;;1.85;0.60;;;;;;;;;;4232115;28;20043;-80
2023/08/09 08:46:15;;;;;;;2.15;0.90;;;;;;;;;;4232052;28;20196;-81
2023/08/09 08:48:18;;;;;;;3.28;0.60;;;20.50;99.90;;;;;;4215078;28;20500;-81
2023/08/09 08:50:19;;;;;;;2.70;1.48;;;;;;;;;;4215445;28;20059;-81
2023/08/09 08:52:21;;;;;;;3.25;0.70;;;;;;;;;;4232319;28;20384;-81
2023/08/09 08:54:23;;;;;;;1.83;0.70;;;;;;;;;;4215115;28;20131;-81
2023/08/09 08:56:24;;;;;;;2.05;0.60;;;;;;;;;;4233287;28;20058;-81
2023/08/09 08:58:25;;;;;;;1.05;0.50;;;;;;;;;;4233374;28;20048;-80
2023/08/09 09:00:26;;;;;;;2.03;0.55;;;;;;;;;;4215201;28;20048;-80
2023/08/09 09:02:27;;;;;;;2.65;0.65;;;;;;;;;;4232140;28;20216;-81
2023/08/09 09:04:28;;;;;;;3.50;0.77;;;;;;;;;;4232664;28;20043;-80
2023/08/09 09:06:30;;;;;;;1.77;0.50;;;;;;;;;;4232463;28;20096;-80
2023/08/09 09:08:41;;;;;;;2.33;0.50;;;21.10;99.90;;;;;;4232534;28;20051;-80
2023/08/09 09:10:46;;;;;;;1.75;0.40;;;21.20;99.90;;;;;;4231894;28;20070;-80
2023/08/09 09:12:53;;;;;;;0.90;0.50;;;21.60;99.90;;;;;;4232872;28;20142;-81
2023/08/09 09:14:53;;;;;;;2.72;0.50;;;21.80;99.90;;;;;;4231740;28;20127;-80
2023/08/09 09:16:55;;;;;;;2.15;0.60;;;21.70;99.90;;;;;;4231919;28;20517;-81
2023/08/09 09:18:55;;;;;;;2.97;0.82;;;21.60;99.90;;;;;;4233073;28;20502;-80
2023/08/09 09:20:56;;;;;;;2.75;0.70;;;21.50;99.90;;;;;;4232343;28;20134;-80
2023/08/09 09:22:57;;;;;;;2.58;0.45;;;21.70;99.90;;;;;;4231195;28;20035;-80
2023/08/09 09:24:58;;;;;;;2.72;0.57;;;21.40;99.90;;;;;;4233057;28;20078;-80
2023/08/09 09:26:59;;;;;;;1.13;0.73;;;21.20;99.90;;;;;;4233319;28;20403;-80
2023/08/09 09:29:00;;;;;;;1.55;0.70;;;21.10;99.90;;;;;;4232632;28;20035;-81
2023/08/09 09:31:01;;;;;;;3.30;0.50;;;21.30;99.90;;;;;;4231153;28;20457;-80
2023/08/09 09:33:03;;;;;;;2.80;0.60;;;21.50;99.90;;;;;;4231341;28;20047;-81
2023/08/09 09:35:04;;;;;;;2.17;0.60;;;21.40;99.90;;;;;;4231703;28;20048;-80
2023/08/09 09:37:05;;;;;;;3.50;1.38;;;21.10;99.90;;;;;;4231649;28;20047;-80
2023/08/09 09:39:10;;;;;;;4.68;0.47;;;20.80;99.90;;;;;;4214191;28;20055;-80
2023/08/09 09:41:11;;;;;;;1.17;0.50;;;20.70;99.90;;;;;;4231149;28;20047;-80
2023/08/09 09:43:12;;;;;;;1.35;0.50;;;20.90;99.90;;;;;;4231320;28;20058;-80
2023/08/09 09:45:14;;;;;;;3.15;0.70;;;21.30;99.90;;;;;;4231437;28;20047;-80
2023/08/09 09:47:15;;;;;;;1.85;0.43;;;21.60;99.90;;;;;;4230065;28;20448;-80
2023/08/09 09:49:16;;;;;;;3.08;0.60;;;22.00;99.90;;;;;;4231246;28;20109;-81
2023/08/09 09:51:18;;;;;;;3.22;0.50;;;22.40;99.90;;;;;;4232834;28;20114;-80
2023/08/09 09:53:20;;;;;;;2.55;0.75;;;22.50;99.90;;;;;;4232570;28;20078;-80
2023/08/09 09:55:26;;;;;;;3.28;0.75;;;22.50;99.90;;;;;;4231383;28;20055;-81
2023/08/09 09:57:27;;;;;;;1.60;0.50;;;22.10;99.80;;;;;;4230461;28;20098;-81
2023/08/09 09:59:28;;;;;;;2.30;0.70;;;21.80;99.90;;;;;;4231531;28;20050;-80
2023/08/09 10:01:31;;;;;;;4.15;0.50;;;21.60;99.90;;;;;;4232259;28;20488;-80
2023/08/09 10:03:33;;;;;;;0.60;0.50;;;21.50;99.90;;;;;;4231041;28;20050;-80
2023/08/09 10:05:37;;;;;;;1.02;0.60;;;21.60;99.90;;;;;;4230860;28;20123;-80
2023/08/09 10:07:40;;;;;;;0.82;0.40;;;21.90;99.90;;;;;;4230622;28;20070;-80
2023/08/09 10:09:41;;;;;;;2.65;0.65;;;22.20;99.90;;;;;;4232483;28;20380;-81
2023/08/09 10:11:44;;;;;;;3.97;1.05;;;22.50;99.90;;;;;;4230750;28;20097;-80
2023/08/09 10:13:46;;;;;;;1.42;0.60;;;22.70;99.10;;;;;;4230509;28;20039;-80
2023/08/09 10:16:05;;;;;;;3.05;0.60;;;22.80;99.10;;;;;;4230784;28;20054;-80
2023/08/09 10:18:11;;;;;;;1.30;0.40;;;23.50;99.60;;;;;;4232112;28;20411;-81
2023/08/09 10:20:13;;;;;;;2.35;0.60;;;22.60;99.20;;;;;;4213464;28;20048;-81
2023/08/09 10:22:18;;;;;;;0.85;0.40;;;22.90;99.30;;;;;;4231025;28;20051;-80
2023/08/09 10:24:19;;;;;;;1.35;0.60;;;23.00;98.40;;;;;;4232401;28;20555;-80
2023/08/09 10:26:31;;;;;;;1.42;0.70;;;22.90;98.40;;;;;;4230945;28;20047;-80
2023/08/09 10:28:42;;;;;;;2.45;0.70;;;22.70;97.50;;;;;;4230788;28;20047;-80
2023/08/09 10:30:47;;;;;;;1.17;0.40;;;22.60;97.80;;;;;;4230923;28;20081;-80
2023/08/09 10:32:49;;;;;;;2.78;0.60;;;22.50;98.00;;;;;;4231767;28;20128;-81
2023/08/09 10:34:50;;;;;;;2.97;0.57;;;22.40;97.00;;;;;;4231545;28;20596;-80
2023/08/09 10:36:53;;;;;;;6.50;0.70;;;22.10;97.60;;;;;;4230648;28;20047;-81
2023/08/09 10:38:54;;;;;;;6.28;1.10;;;21.90;98.00;;;;;;4231581;28;20118;-80